sensor_id;sensor_type;location;lat;lon;timestamp;temperature;humidity
75281;HTU21D;63874;47.230;39.620;2024-01-07T00:01:30;4.92;80.33
75281;HTU21D;63874;47.230;39.620;2024-01-07T00:03:55;4.94;80.28
75281;HTU21D;63874;47.230;39.620;2024-01-07T00:06:21;4.93;80.25
75281;HTU21D;63874;47.230;39.620;2024-01-07T00:08:47;4.92;80.27
75281;HTU21D;63874;47.230;39.620;2024-01-07T00:11:13;4.93;80.36
75281;HTU21D;63874;47.230;39.620;2024-01-07T00:13:38;4.95;80.33
75281;HTU21D;63874;47.230;39.620;2024-01-07T00:16:04;4.94;80.33
75281;HTU21D;63874;47.230;39.620;2024-01-07T00:18:30;4.96;80.34
75281;HTU21D;63874;47.230;39.620;2024-01-07T00:20:55;4.96;80.31
75281;HTU21D;63874;47.230;39.620;2024-01-07T00:23:21;4.97;80.27
75281;HTU21D;63874;47.230;39.620;2024-01-07T00:25:47;4.94;80.28
75281;HTU21D;63874;47.230;39.620;2024-01-07T00:28:13;4.94;80.27
75281;HTU21D;63874;47.230;39.620;2024-01-07T00:30:39;4.94;80.30
75281;HTU21D;63874;47.230;39.620;2024-01-07T00:33:05;4.92;80.30
75281;HTU21D;63874;47.230;39.620;2024-01-07T00:35:31;4.92;80.31
75281;HTU21D;63874;47.230;39.620;2024-01-07T00:37:57;4.89;80.32
75281;HTU21D;63874;47.230;39.620;2024-01-07T00:40:23;4.89;80.34
75281;HTU21D;63874;47.230;39.620;2024-01-07T00:42:49;4.89;80.38
75281;HTU21D;63874;47.230;39.620;2024-01-07T00:45:19;4.90;80.47
75281;HTU21D;63874;47.230;39.620;2024-01-07T00:47:45;4.90;80.62
75281;HTU21D;63874;47.230;39.620;2024-01-07T00:50:11;4.91;80.59
75281;HTU21D;63874;47.230;39.620;2024-01-07T00:52:37;4.89;80.53
75281;HTU21D;63874;47.230;39.620;2024-01-07T00:55:03;4.89;80.52
75281;HTU21D;63874;47.230;39.620;2024-01-07T00:57:29;4.87;80.51
75281;HTU21D;63874;47.230;39.620;2024-01-07T00:59:55;4.87;80.64
75281;HTU21D;63874;47.230;39.620;2024-01-07T01:02:24;4.89;80.69
75281;HTU21D;63874;47.230;39.620;2024-01-07T01:04:50;4.88;80.75
75281;HTU21D;63874;47.230;39.620;2024-01-07T01:07:16;4.89;80.77
75281;HTU21D;63874;47.230;39.620;2024-01-07T01:09:41;4.89;80.78
75281;HTU21D;63874;47.230;39.620;2024-01-07T01:12:07;4.88;80.85
75281;HTU21D;63874;47.230;39.620;2024-01-07T01:14:33;4.90;80.90
75281;HTU21D;63874;47.230;39.620;2024-01-07T01:16:58;4.90;80.97
75281;HTU21D;63874;47.230;39.620;2024-01-07T01:19:24;4.89;81.00
75281;HTU21D;63874;47.230;39.620;2024-01-07T01:21:50;4.91;81.00
75281;HTU21D;63874;47.230;39.620;2024-01-07T01:24:16;4.90;80.97
75281;HTU21D;63874;47.230;39.620;2024-01-07T01:26:42;4.90;81.03
75281;HTU21D;63874;47.230;39.620;2024-01-07T01:29:07;4.90;81.25
75281;HTU21D;63874;47.230;39.620;2024-01-07T01:31:33;4.92;81.17
75281;HTU21D;63874;47.230;39.620;2024-01-07T01:33:59;4.93;81.23
75281;HTU21D;63874;47.230;39.620;2024-01-07T01:36:25;4.97;81.27
75281;HTU21D;63874;47.230;39.620;2024-01-07T01:38:51;4.98;81.19
75281;HTU21D;63874;47.230;39.620;2024-01-07T01:41:17;5.00;81.16
75281;HTU21D;63874;47.230;39.620;2024-01-07T01:43:43;5.00;81.36
75281;HTU21D;63874;47.230;39.620;2024-01-07T01:46:09;5.01;81.30
75281;HTU21D;63874;47.230;39.620;2024-01-07T01:48:35;5.02;81.31
75281;HTU21D;63874;47.230;39.620;2024-01-07T01:51:01;5.04;81.33
75281;HTU21D;63874;47.230;39.620;2024-01-07T01:53:27;5.05;81.31
75281;HTU21D;63874;47.230;39.620;2024-01-07T01:55:55;5.06;81.35
75281;HTU21D;63874;47.230;39.620;2024-01-07T01:58:23;5.10;81.35
75281;HTU21D;63874;47.230;39.620;2024-01-07T02:00:49;5.13;81.41
75281;HTU21D;63874;47.230;39.620;2024-01-07T02:03:16;5.18;81.44
75281;HTU21D;63874;47.230;39.620;2024-01-07T02:05:42;5.23;81.60
75281;HTU21D;63874;47.230;39.620;2024-01-07T02:08:08;5.26;81.54
75281;HTU21D;63874;47.230;39.620;2024-01-07T02:10:35;5.28;81.46
75281;HTU21D;63874;47.230;39.620;2024-01-07T02:13:02;5.31;81.44
75281;HTU21D;63874;47.230;39.620;2024-01-07T02:15:28;5.32;81.39
75281;HTU21D;63874;47.230;39.620;2024-01-07T02:17:54;5.31;81.33
75281;HTU21D;63874;47.230;39.620;2024-01-07T02:20:20;5.30;81.33
75281;HTU21D;63874;47.230;39.620;2024-01-07T02:22:46;5.28;81.30
75281;HTU21D;63874;47.230;39.620;2024-01-07T02:25:12;5.26;81.33
75281;HTU21D;63874;47.230;39.620;2024-01-07T02:27:38;5.25;81.37
75281;HTU21D;63874;47.230;39.620;2024-01-07T02:30:04;5.26;81.40
75281;HTU21D;63874;47.230;39.620;2024-01-07T02:32:30;5.26;81.40
75281;HTU21D;63874;47.230;39.620;2024-01-07T02:35:00;5.26;81.50
75281;HTU21D;63874;47.230;39.620;2024-01-07T02:37:26;5.27;81.52
75281;HTU21D;63874;47.230;39.620;2024-01-07T02:39:51;5.32;81.66
75281;HTU21D;63874;47.230;39.620;2024-01-07T02:42:17;5.34;81.63
75281;HTU21D;63874;47.230;39.620;2024-01-07T02:44:43;5.37;81.69
75281;HTU21D;63874;47.230;39.620;2024-01-07T02:47:09;5.40;81.72
75281;HTU21D;63874;47.230;39.620;2024-01-07T02:49:34;5.43;81.72
75281;HTU21D;63874;47.230;39.620;2024-01-07T02:52:00;5.46;81.70
75281;HTU21D;63874;47.230;39.620;2024-01-07T02:54:26;5.47;81.74
75281;HTU21D;63874;47.230;39.620;2024-01-07T02:56:52;5.50;81.72
75281;HTU21D;63874;47.230;39.620;2024-01-07T02:59:17;5.51;81.68
75281;HTU21D;63874;47.230;39.620;2024-01-07T03:01:43;5.53;81.67
75281;HTU21D;63874;47.230;39.620;2024-01-07T03:04:13;5.53;81.66
75281;HTU21D;63874;47.230;39.620;2024-01-07T03:06:40;5.57;81.72
75281;HTU21D;63874;47.230;39.620;2024-01-07T03:09:06;5.62;81.63
75281;HTU21D;63874;47.230;39.620;2024-01-07T03:11:33;5.64;81.62
75281;HTU21D;63874;47.230;39.620;2024-01-07T03:13:58;5.67;81.60
75281;HTU21D;63874;47.230;39.620;2024-01-07T03:16:25;5.69;81.52
75281;HTU21D;63874;47.230;39.620;2024-01-07T03:18:51;5.71;81.47
75281;HTU21D;63874;47.230;39.620;2024-01-07T03:21:17;5.70;81.39
75281;HTU21D;63874;47.230;39.620;2024-01-07T03:23:44;5.72;81.32
75281;HTU21D;63874;47.230;39.620;2024-01-07T03:26:09;5.71;81.31
75281;HTU21D;63874;47.230;39.620;2024-01-07T03:28:35;5.70;81.27
75281;HTU21D;63874;47.230;39.620;2024-01-07T03:31:14;5.72;81.25
75281;HTU21D;63874;47.230;39.620;2024-01-07T03:33:40;5.71;81.27
75281;HTU21D;63874;47.230;39.620;2024-01-07T03:36:15;5.72;81.27
75281;HTU21D;63874;47.230;39.620;2024-01-07T03:38:44;5.74;81.27
75281;HTU21D;63874;47.230;39.620;2024-01-07T03:41:15;5.77;81.26
75281;HTU21D;63874;47.230;39.620;2024-01-07T03:43:41;5.79;81.26
75281;HTU21D;63874;47.230;39.620;2024-01-07T03:46:07;5.81;81.16
75281;HTU21D;63874;47.230;39.620;2024-01-07T03:48:33;5.83;81.13
75281;HTU21D;63874;47.230;39.620;2024-01-07T03:50:59;5.85;81.10
75281;HTU21D;63874;47.230;39.620;2024-01-07T03:53:24;5.87;81.08
75281;HTU21D;63874;47.230;39.620;2024-01-07T03:55:50;5.91;80.98
75281;HTU21D;63874;47.230;39.620;2024-01-07T03:58:16;5.93;80.96
75281;HTU21D;63874;47.230;39.620;2024-01-07T04:00:42;5.95;80.88
75281;HTU21D;63874;47.230;39.620;2024-01-07T04:03:07;5.97;80.75
75281;HTU21D;63874;47.230;39.620;2024-01-07T04:05:33;5.97;80.78
75281;HTU21D;63874;47.230;39.620;2024-01-07T04:08:02;6.01;80.65
75281;HTU21D;63874;47.230;39.620;2024-01-07T04:10:28;6.00;80.60
75281;HTU21D;63874;47.230;39.620;2024-01-07T04:12:54;6.00;80.59
75281;HTU21D;63874;47.230;39.620;2024-01-07T04:15:19;6.02;80.52
75281;HTU21D;63874;47.230;39.620;2024-01-07T04:17:45;6.02;80.56
75281;HTU21D;63874;47.230;39.620;2024-01-07T04:20:14;6.05;80.54
75281;HTU21D;63874;47.230;39.620;2024-01-07T04:22:40;6.08;80.44
75281;HTU21D;63874;47.230;39.620;2024-01-07T04:25:06;6.10;80.42
75281;HTU21D;63874;47.230;39.620;2024-01-07T04:27:34;6.11;80.28
75281;HTU21D;63874;47.230;39.620;2024-01-07T04:30:00;6.12;80.23
75281;HTU21D;63874;47.230;39.620;2024-01-07T04:32:26;6.12;80.16
75281;HTU21D;63874;47.230;39.620;2024-01-07T04:34:52;6.12;80.15
75281;HTU21D;63874;47.230;39.620;2024-01-07T04:37:18;6.11;80.07
75281;HTU21D;63874;47.230;39.620;2024-01-07T04:39:43;6.13;79.98
75281;HTU21D;63874;47.230;39.620;2024-01-07T04:42:09;6.13;80.01
75281;HTU21D;63874;47.230;39.620;2024-01-07T04:44:35;6.14;79.98
75281;HTU21D;63874;47.230;39.620;2024-01-07T04:47:01;6.13;79.97
75281;HTU21D;63874;47.230;39.620;2024-01-07T04:49:26;6.13;79.98
75281;HTU21D;63874;47.230;39.620;2024-01-07T04:51:54;6.13;79.94
75281;HTU21D;63874;47.230;39.620;2024-01-07T04:54:20;6.12;79.95
75281;HTU21D;63874;47.230;39.620;2024-01-07T04:56:46;6.13;79.95
75281;HTU21D;63874;47.230;39.620;2024-01-07T04:59:11;6.12;79.95
75281;HTU21D;63874;47.230;39.620;2024-01-07T05:01:37;6.11;79.88
75281;HTU21D;63874;47.230;39.620;2024-01-07T05:04:03;6.13;79.90
75281;HTU21D;63874;47.230;39.620;2024-01-07T05:06:30;6.14;79.82
75281;HTU21D;63874;47.230;39.620;2024-01-07T05:08:55;6.13;79.82
75281;HTU21D;63874;47.230;39.620;2024-01-07T05:11:21;6.14;79.83
75281;HTU21D;63874;47.230;39.620;2024-01-07T05:13:47;6.13;79.82
75281;HTU21D;63874;47.230;39.620;2024-01-07T05:16:19;6.14;79.76
75281;HTU21D;63874;47.230;39.620;2024-01-07T05:18:45;6.16;79.74
75281;HTU21D;63874;47.230;39.620;2024-01-07T05:21:14;6.16;79.66
75281;HTU21D;63874;47.230;39.620;2024-01-07T05:23:41;6.15;79.63
75281;HTU21D;63874;47.230;39.620;2024-01-07T05:26:06;6.15;79.59
75281;HTU21D;63874;47.230;39.620;2024-01-07T05:28:32;6.15;79.58
75281;HTU21D;63874;47.230;39.620;2024-01-07T05:30:58;6.16;79.59
75281;HTU21D;63874;47.230;39.620;2024-01-07T05:33:23;6.16;79.50
75281;HTU21D;63874;47.230;39.620;2024-01-07T05:35:49;6.19;79.53
75281;HTU21D;63874;47.230;39.620;2024-01-07T05:38:15;6.22;79.43
75281;HTU21D;63874;47.230;39.620;2024-01-07T05:40:41;6.24;79.37
75281;HTU21D;63874;47.230;39.620;2024-01-07T05:43:07;6.25;79.33
75281;HTU21D;63874;47.230;39.620;2024-01-07T05:45:32;6.27;79.28
75281;HTU21D;63874;47.230;39.620;2024-01-07T05:47:58;6.25;79.27
75281;HTU21D;63874;47.230;39.620;2024-01-07T05:50:24;6.27;79.24
75281;HTU21D;63874;47.230;39.620;2024-01-07T05:52:49;6.28;79.25
75281;HTU21D;63874;47.230;39.620;2024-01-07T05:55:15;6.30;79.21
75281;HTU21D;63874;47.230;39.620;2024-01-07T05:57:42;6.35;79.18
75281;HTU21D;63874;47.230;39.620;2024-01-07T06:00:08;6.40;79.00
75281;HTU21D;63874;47.230;39.620;2024-01-07T06:02:38;6.42;78.92
75281;HTU21D;63874;47.230;39.620;2024-01-07T06:05:04;6.44;78.80
75281;HTU21D;63874;47.230;39.620;2024-01-07T06:07:29;6.49;78.65
75281;HTU21D;63874;47.230;39.620;2024-01-07T06:09:55;6.52;78.60
75281;HTU21D;63874;47.230;39.620;2024-01-07T06:12:21;6.56;78.47
75281;HTU21D;63874;47.230;39.620;2024-01-07T06:14:47;6.58;78.41
75281;HTU21D;63874;47.230;39.620;2024-01-07T06:17:13;6.59;78.40
75281;HTU21D;63874;47.230;39.620;2024-01-07T06:19:40;6.63;78.27
75281;HTU21D;63874;47.230;39.620;2024-01-07T06:22:06;6.63;78.30
75281;HTU21D;63874;47.230;39.620;2024-01-07T06:24:34;6.66;78.13
75281;HTU21D;63874;47.230;39.620;2024-01-07T06:27:01;6.66;78.08
75281;HTU21D;63874;47.230;39.620;2024-01-07T06:29:29;6.68;78.10
75281;HTU21D;63874;47.230;39.620;2024-01-07T06:31:55;6.67;78.09
75281;HTU21D;63874;47.230;39.620;2024-01-07T06:34:21;6.69;78.03
75281;HTU21D;63874;47.230;39.620;2024-01-07T06:36:47;6.70;77.95
75281;HTU21D;63874;47.230;39.620;2024-01-07T06:39:13;6.72;77.98
75281;HTU21D;63874;47.230;39.620;2024-01-07T06:41:38;6.72;78.00
75281;HTU21D;63874;47.230;39.620;2024-01-07T06:44:04;6.75;77.99
75281;HTU21D;63874;47.230;39.620;2024-01-07T06:46:30;6.79;77.92
75281;HTU21D;63874;47.230;39.620;2024-01-07T06:48:59;6.83;77.82
75281;HTU21D;63874;47.230;39.620;2024-01-07T06:51:27;6.85;77.85
75281;HTU21D;63874;47.230;39.620;2024-01-07T06:53:53;6.93;77.66
75281;HTU21D;63874;47.230;39.620;2024-01-07T06:56:25;6.97;77.54
75281;HTU21D;63874;47.230;39.620;2024-01-07T06:58:50;6.99;77.44
75281;HTU21D;63874;47.230;39.620;2024-01-07T07:01:23;7.03;77.26
75281;HTU21D;63874;47.230;39.620;2024-01-07T07:03:49;7.04;77.24
75281;HTU21D;63874;47.230;39.620;2024-01-07T07:06:18;7.05;77.16
75281;HTU21D;63874;47.230;39.620;2024-01-07T07:08:44;7.09;77.20
75281;HTU21D;63874;47.230;39.620;2024-01-07T07:11:10;7.09;77.08
75281;HTU21D;63874;47.230;39.620;2024-01-07T07:13:36;7.09;77.08
75281;HTU21D;63874;47.230;39.620;2024-01-07T07:16:03;7.11;77.08
75281;HTU21D;63874;47.230;39.620;2024-01-07T07:18:29;7.12;77.13
75281;HTU21D;63874;47.230;39.620;2024-01-07T07:20:54;7.13;77.11
75281;HTU21D;63874;47.230;39.620;2024-01-07T07:23:20;7.13;77.07
75281;HTU21D;63874;47.230;39.620;2024-01-07T07:25:46;7.16;77.08
75281;HTU21D;63874;47.230;39.620;2024-01-07T07:28:12;7.17;77.08
75281;HTU21D;63874;47.230;39.620;2024-01-07T07:30:37;7.19;77.06
75281;HTU21D;63874;47.230;39.620;2024-01-07T07:33:03;7.22;77.05
75281;HTU21D;63874;47.230;39.620;2024-01-07T07:35:30;7.25;77.09
75281;HTU21D;63874;47.230;39.620;2024-01-07T07:37:56;7.29;77.08
75281;HTU21D;63874;47.230;39.620;2024-01-07T07:40:22;7.33;77.08
75281;HTU21D;63874;47.230;39.620;2024-01-07T07:42:51;7.40;77.08
75281;HTU21D;63874;47.230;39.620;2024-01-07T07:45:18;7.49;77.02
75281;HTU21D;63874;47.230;39.620;2024-01-07T07:47:44;7.56;76.87
75281;HTU21D;63874;47.230;39.620;2024-01-07T07:50:10;7.64;76.75
75281;HTU21D;63874;47.230;39.620;2024-01-07T07:52:47;7.73;76.51
75281;HTU21D;63874;47.230;39.620;2024-01-07T07:55:12;7.79;76.04
75281;HTU21D;63874;47.230;39.620;2024-01-07T07:57:41;7.82;76.03
75281;HTU21D;63874;47.230;39.620;2024-01-07T08:00:07;7.87;76.03
75281;HTU21D;63874;47.230;39.620;2024-01-07T08:02:35;7.88;75.97
75281;HTU21D;63874;47.230;39.620;2024-01-07T08:05:05;7.90;75.90
75281;HTU21D;63874;47.230;39.620;2024-01-07T08:07:32;7.92;75.87
75281;HTU21D;63874;47.230;39.620;2024-01-07T08:10:03;7.97;75.72
75281;HTU21D;63874;47.230;39.620;2024-01-07T08:12:28;8.03;75.73
75281;HTU21D;63874;47.230;39.620;2024-01-07T08:14:54;8.05;75.64
75281;HTU21D;63874;47.230;39.620;2024-01-07T08:17:20;8.08;75.62
75281;HTU21D;63874;47.230;39.620;2024-01-07T08:19:46;8.14;75.64
75281;HTU21D;63874;47.230;39.620;2024-01-07T08:22:11;8.15;75.56
75281;HTU21D;63874;47.230;39.620;2024-01-07T08:24:37;8.19;75.54
75281;HTU21D;63874;47.230;39.620;2024-01-07T08:27:03;8.24;75.60
75281;HTU21D;63874;47.230;39.620;2024-01-07T08:29:29;8.36;75.58
75281;HTU21D;63874;47.230;39.620;2024-01-07T08:31:55;8.51;75.35
75281;HTU21D;63874;47.230;39.620;2024-01-07T08:34:21;8.64;75.05
75281;HTU21D;63874;47.230;39.620;2024-01-07T08:36:47;8.71;74.87
75281;HTU21D;63874;47.230;39.620;2024-01-07T08:39:14;8.75;74.73
75281;HTU21D;63874;47.230;39.620;2024-01-07T08:41:40;8.81;74.60
75281;HTU21D;63874;47.230;39.620;2024-01-07T08:44:08;8.88;74.29
75281;HTU21D;63874;47.230;39.620;2024-01-07T08:46:34;8.95;74.21
75281;HTU21D;63874;47.230;39.620;2024-01-07T08:49:01;8.98;74.06
75281;HTU21D;63874;47.230;39.620;2024-01-07T08:51:27;9.01;74.05
75281;HTU21D;63874;47.230;39.620;2024-01-07T08:53:52;9.05;74.13
75281;HTU21D;63874;47.230;39.620;2024-01-07T08:56:18;9.14;74.02
75281;HTU21D;63874;47.230;39.620;2024-01-07T08:58:44;9.22;73.88
75281;HTU21D;63874;47.230;39.620;2024-01-07T09:01:10;9.32;73.93
75281;HTU21D;63874;47.230;39.620;2024-01-07T09:03:35;9.41;73.70
75281;HTU21D;63874;47.230;39.620;2024-01-07T09:06:01;9.48;73.48
75281;HTU21D;63874;47.230;39.620;2024-01-07T09:08:27;9.52;73.46
75281;HTU21D;63874;47.230;39.620;2024-01-07T09:10:56;9.60;73.30
75281;HTU21D;63874;47.230;39.620;2024-01-07T09:13:24;9.65;73.15
75281;HTU21D;63874;47.230;39.620;2024-01-07T09:15:50;9.75;72.98
75281;HTU21D;63874;47.230;39.620;2024-01-07T09:18:16;9.84;72.15
75281;HTU21D;63874;47.230;39.620;2024-01-07T09:20:42;9.88;72.16
75281;HTU21D;63874;47.230;39.620;2024-01-07T09:23:10;9.91;71.77
75281;HTU21D;63874;47.230;39.620;2024-01-07T09:25:36;9.93;71.04
75281;HTU21D;63874;47.230;39.620;2024-01-07T09:28:02;9.89;71.06
75281;HTU21D;63874;47.230;39.620;2024-01-07T09:30:28;9.78;71.19
75281;HTU21D;63874;47.230;39.620;2024-01-07T09:32:54;9.70;71.55
75281;HTU21D;63874;47.230;39.620;2024-01-07T09:35:19;9.65;71.75
75281;HTU21D;63874;47.230;39.620;2024-01-07T09:37:46;9.64;71.61
75281;HTU21D;63874;47.230;39.620;2024-01-07T09:40:12;9.56;71.76
75281;HTU21D;63874;47.230;39.620;2024-01-07T09:42:40;9.48;71.93
75281;HTU21D;63874;47.230;39.620;2024-01-07T09:45:06;9.38;72.11
75281;HTU21D;63874;47.230;39.620;2024-01-07T09:47:32;9.31;72.50
75281;HTU21D;63874;47.230;39.620;2024-01-07T09:49:58;9.24;72.94
75281;HTU21D;63874;47.230;39.620;2024-01-07T09:52:24;9.22;73.03
75281;HTU21D;63874;47.230;39.620;2024-01-07T09:55:00;9.25;73.26
75281;HTU21D;63874;47.230;39.620;2024-01-07T09:57:29;9.25;73.46
75281;HTU21D;63874;47.230;39.620;2024-01-07T09:59:55;9.21;73.75
75281;HTU21D;63874;47.230;39.620;2024-01-07T10:02:20;9.16;74.02
75281;HTU21D;63874;47.230;39.620;2024-01-07T10:04:49;9.17;74.32
75281;HTU21D;63874;47.230;39.620;2024-01-07T10:07:15;9.16;74.43
75281;HTU21D;63874;47.230;39.620;2024-01-07T10:09:45;9.09;74.56
75281;HTU21D;63874;47.230;39.620;2024-01-07T10:12:11;9.05;74.82
75281;HTU21D;63874;47.230;39.620;2024-01-07T10:14:38;8.98;75.02
75281;HTU21D;63874;47.230;39.620;2024-01-07T10:17:15;8.96;75.27
75281;HTU21D;63874;47.230;39.620;2024-01-07T10:19:49;8.95;75.46
75281;HTU21D;63874;47.230;39.620;2024-01-07T10:22:17;8.95;75.67
75281;HTU21D;63874;47.230;39.620;2024-01-07T10:24:47;9.00;75.87
75281;HTU21D;63874;47.230;39.620;2024-01-07T10:27:14;9.07;76.02
75281;HTU21D;63874;47.230;39.620;2024-01-07T10:29:40;9.15;76.09
75281;HTU21D;63874;47.230;39.620;2024-01-07T10:32:06;9.18;76.03
75281;HTU21D;63874;47.230;39.620;2024-01-07T10:34:32;9.19;76.07
75281;HTU21D;63874;47.230;39.620;2024-01-07T10:36:59;9.17;76.17
75281;HTU21D;63874;47.230;39.620;2024-01-07T10:39:24;9.11;76.47
75281;HTU21D;63874;47.230;39.620;2024-01-07T10:41:51;9.06;76.83
75281;HTU21D;63874;47.230;39.620;2024-01-07T10:44:22;9.01;77.69
75281;HTU21D;63874;47.230;39.620;2024-01-07T10:46:48;8.91;77.28
75281;HTU21D;63874;47.230;39.620;2024-01-07T10:49:20;8.83;77.89
75281;HTU21D;63874;47.230;39.620;2024-01-07T10:51:50;8.76;78.37
75281;HTU21D;63874;47.230;39.620;2024-01-07T10:54:16;8.60;78.11
75281;HTU21D;63874;47.230;39.620;2024-01-07T10:56:45;8.44;77.89
75281;HTU21D;63874;47.230;39.620;2024-01-07T10:59:11;8.30;77.74
75281;HTU21D;63874;47.230;39.620;2024-01-07T11:01:37;8.14;77.53
75281;HTU21D;63874;47.230;39.620;2024-01-07T11:04:13;7.97;77.43
75281;HTU21D;63874;47.230;39.620;2024-01-07T11:06:52;7.76;77.56
75281;HTU21D;63874;47.230;39.620;2024-01-07T11:09:26;7.60;77.86
75281;HTU21D;63874;47.230;39.620;2024-01-07T11:11:54;7.49;77.99
75281;HTU21D;63874;47.230;39.620;2024-01-07T11:14:34;7.41;78.48
75281;HTU21D;63874;47.230;39.620;2024-01-07T11:17:01;7.27;78.69
75281;HTU21D;63874;47.230;39.620;2024-01-07T11:19:28;7.16;79.15
75281;HTU21D;63874;47.230;39.620;2024-01-07T11:24:41;6.97;79.84
75281;HTU21D;63874;47.230;39.620;2024-01-07T11:27:08;6.91;80.27
75281;HTU21D;63874;47.230;39.620;2024-01-07T11:29:35;6.87;80.44
75281;HTU21D;63874;47.230;39.620;2024-01-07T11:32:00;6.78;80.69
75281;HTU21D;63874;47.230;39.620;2024-01-07T11:34:39;6.74;80.94
75281;HTU21D;63874;47.230;39.620;2024-01-07T11:37:17;6.67;81.45
75281;HTU21D;63874;47.230;39.620;2024-01-07T11:39:43;6.59;82.02
75281;HTU21D;63874;47.230;39.620;2024-01-07T11:42:09;6.52;81.81
75281;HTU21D;63874;47.230;39.620;2024-01-07T11:44:51;6.40;81.68
75281;HTU21D;63874;47.230;39.620;2024-01-07T11:47:17;6.23;81.44
75281;HTU21D;63874;47.230;39.620;2024-01-07T11:49:43;6.06;81.28
75281;HTU21D;63874;47.230;39.620;2024-01-07T11:52:09;5.91;81.33
75281;HTU21D;63874;47.230;39.620;2024-01-07T11:54:38;5.71;81.43
75281;HTU21D;63874;47.230;39.620;2024-01-07T11:57:06;5.57;81.60
75281;HTU21D;63874;47.230;39.620;2024-01-07T11:59:33;5.42;81.59
75281;HTU21D;63874;47.230;39.620;2024-01-07T12:02:02;5.22;81.49
75281;HTU21D;63874;47.230;39.620;2024-01-07T12:04:30;5.03;81.37
75281;HTU21D;63874;47.230;39.620;2024-01-07T12:06:56;4.89;81.67
75281;HTU21D;63874;47.230;39.620;2024-01-07T12:09:21;4.74;81.62
75281;HTU21D;63874;47.230;39.620;2024-01-07T12:11:47;4.59;82.04
75281;HTU21D;63874;47.230;39.620;2024-01-07T12:14:13;4.42;82.30
75281;HTU21D;63874;47.230;39.620;2024-01-07T12:16:39;4.32;82.65
75281;HTU21D;63874;47.230;39.620;2024-01-07T12:19:05;4.28;82.85
75281;HTU21D;63874;47.230;39.620;2024-01-07T12:21:31;4.21;83.17
75281;HTU21D;63874;47.230;39.620;2024-01-07T12:23:57;4.16;83.19
75281;HTU21D;63874;47.230;39.620;2024-01-07T12:26:26;4.09;83.30
75281;HTU21D;63874;47.230;39.620;2024-01-07T12:28:53;4.05;83.36
75281;HTU21D;63874;47.230;39.620;2024-01-07T12:31:20;4.01;83.40
75281;HTU21D;63874;47.230;39.620;2024-01-07T12:33:46;3.97;83.46
75281;HTU21D;63874;47.230;39.620;2024-01-07T12:36:12;3.94;83.65
75281;HTU21D;63874;47.230;39.620;2024-01-07T12:38:38;3.95;83.47
75281;HTU21D;63874;47.230;39.620;2024-01-07T12:41:04;3.90;82.83
75281;HTU21D;63874;47.230;39.620;2024-01-07T12:43:30;3.80;82.52
75281;HTU21D;63874;47.230;39.620;2024-01-07T12:45:56;3.72;82.53
75281;HTU21D;63874;47.230;39.620;2024-01-07T12:48:23;3.62;82.60
75281;HTU21D;63874;47.230;39.620;2024-01-07T12:50:49;3.55;82.59
75281;HTU21D;63874;47.230;39.620;2024-01-07T12:53:15;3.48;82.67
75281;HTU21D;63874;47.230;39.620;2024-01-07T12:55:40;3.46;82.63
75281;HTU21D;63874;47.230;39.620;2024-01-07T12:58:06;3.43;82.62
75281;HTU21D;63874;47.230;39.620;2024-01-07T13:00:32;3.36;82.46
75281;HTU21D;63874;47.230;39.620;2024-01-07T13:03:00;3.32;82.55
75281;HTU21D;63874;47.230;39.620;2024-01-07T13:05:26;3.30;82.49
75281;HTU21D;63874;47.230;39.620;2024-01-07T13:07:52;3.26;82.49
75281;HTU21D;63874;47.230;39.620;2024-01-07T13:10:17;3.24;82.46
75281;HTU21D;63874;47.230;39.620;2024-01-07T13:12:43;3.21;82.44
75281;HTU21D;63874;47.230;39.620;2024-01-07T13:15:12;3.20;81.83
75281;HTU21D;63874;47.230;39.620;2024-01-07T13:17:38;3.17;81.20
75281;HTU21D;63874;47.230;39.620;2024-01-07T13:20:03;3.10;81.36
75281;HTU21D;63874;47.230;39.620;2024-01-07T13:22:32;3.04;81.46
75281;HTU21D;63874;47.230;39.620;2024-01-07T13:24:59;3.01;81.55
75281;HTU21D;63874;47.230;39.620;2024-01-07T13:27:25;3.00;81.73
75281;HTU21D;63874;47.230;39.620;2024-01-07T13:29:50;2.99;81.36
75281;HTU21D;63874;47.230;39.620;2024-01-07T13:32:16;2.99;80.75
75281;HTU21D;63874;47.230;39.620;2024-01-07T13:34:44;2.93;80.81
75281;HTU21D;63874;47.230;39.620;2024-01-07T13:37:10;2.89;80.80
75281;HTU21D;63874;47.230;39.620;2024-01-07T13:39:37;2.82;80.91
75281;HTU21D;63874;47.230;39.620;2024-01-07T13:42:03;2.79;81.01
75281;HTU21D;63874;47.230;39.620;2024-01-07T13:44:30;2.75;80.98
75281;HTU21D;63874;47.230;39.620;2024-01-07T13:46:56;2.74;80.78
75281;HTU21D;63874;47.230;39.620;2024-01-07T13:49:21;2.70;80.88
75281;HTU21D;63874;47.230;39.620;2024-01-07T13:51:47;2.68;80.98
75281;HTU21D;63874;47.230;39.620;2024-01-07T13:54:13;2.69;80.84
75281;HTU21D;63874;47.230;39.620;2024-01-07T13:56:40;2.68;80.59
75281;HTU21D;63874;47.230;39.620;2024-01-07T13:59:08;2.61;80.64
75281;HTU21D;63874;47.230;39.620;2024-01-07T14:01:34;2.59;80.75
75281;HTU21D;63874;47.230;39.620;2024-01-07T14:04:05;2.57;80.80
75281;HTU21D;63874;47.230;39.620;2024-01-07T14:06:34;2.56;80.89
75281;HTU21D;63874;47.230;39.620;2024-01-07T14:09:03;2.55;80.87
75281;HTU21D;63874;47.230;39.620;2024-01-07T14:11:35;2.55;80.94
75281;HTU21D;63874;47.230;39.620;2024-01-07T14:14:02;2.53;80.91
75281;HTU21D;63874;47.230;39.620;2024-01-07T14:16:31;2.51;80.46
75281;HTU21D;63874;47.230;39.620;2024-01-07T14:18:57;2.46;80.33
75281;HTU21D;63874;47.230;39.620;2024-01-07T14:21:23;2.44;80.12
75281;HTU21D;63874;47.230;39.620;2024-01-07T14:23:50;2.39;80.21
75281;HTU21D;63874;47.230;39.620;2024-01-07T14:26:15;2.31;80.29
75281;HTU21D;63874;47.230;39.620;2024-01-07T14:28:41;2.28;80.27
75281;HTU21D;63874;47.230;39.620;2024-01-07T14:31:07;2.27;80.24
75281;HTU21D;63874;47.230;39.620;2024-01-07T14:33:33;2.23;80.46
75281;HTU21D;63874;47.230;39.620;2024-01-07T14:35:59;2.24;80.28
75281;HTU21D;63874;47.230;39.620;2024-01-07T14:38:27;2.23;80.07
75281;HTU21D;63874;47.230;39.620;2024-01-07T14:40:53;2.13;80.02
75281;HTU21D;63874;47.230;39.620;2024-01-07T14:43:19;2.09;80.25
75281;HTU21D;63874;47.230;39.620;2024-01-07T14:45:45;2.03;80.13
75281;HTU21D;63874;47.230;39.620;2024-01-07T14:48:10;2.01;79.95
75281;HTU21D;63874;47.230;39.620;2024-01-07T14:50:36;1.91;80.06
75281;HTU21D;63874;47.230;39.620;2024-01-07T14:53:05;1.87;80.27
75281;HTU21D;63874;47.230;39.620;2024-01-07T14:55:31;1.85;80.45
75281;HTU21D;63874;47.230;39.620;2024-01-07T14:57:56;1.85;80.45
75281;HTU21D;63874;47.230;39.620;2024-01-07T15:00:22;1.83;80.59
75281;HTU21D;63874;47.230;39.620;2024-01-07T15:02:48;1.82;80.75
75281;HTU21D;63874;47.230;39.620;2024-01-07T15:05:14;1.87;80.59
75281;HTU21D;63874;47.230;39.620;2024-01-07T15:07:40;1.86;80.31
75281;HTU21D;63874;47.230;39.620;2024-01-07T15:10:06;1.80;80.11
75281;HTU21D;63874;47.230;39.620;2024-01-07T15:12:32;1.77;80.06
75281;HTU21D;63874;47.230;39.620;2024-01-07T15:15:04;1.76;79.75